createdAt,value
2022-12-19T00:01:36.240Z,5.77
2022-12-19T00:04:08.265Z,7.78
2022-12-19T00:06:37.431Z,7.85
2022-12-19T00:09:05.500Z,5.78
2022-12-19T00:11:33.045Z,6.57
2022-12-19T00:14:00.534Z,8.00
2022-12-19T00:16:29.304Z,6.97
2022-12-19T00:18:59.148Z,4.78
2022-12-19T00:21:29.235Z,5.35
2022-12-19T00:23:56.763Z,6.32
2022-12-19T00:26:26.546Z,4.70
2022-12-19T00:28:55.644Z,7.18
2022-12-19T00:31:26.072Z,6.88
2022-12-19T00:33:53.354Z,5.88
2022-12-19T00:36:25.899Z,8.65
2022-12-19T00:38:54.193Z,5.50
2022-12-19T00:41:23.522Z,6.82
2022-12-19T00:43:58.197Z,9.30
2022-12-19T00:46:26.401Z,9.05
2022-12-19T00:48:53.858Z,9.82
2022-12-19T00:51:23.389Z,7.87
2022-12-19T00:53:51.087Z,11.85
2022-12-19T00:56:21.268Z,10.27
2022-12-19T00:58:49.008Z,9.82
2022-12-19T01:01:21.883Z,13.13
2022-12-19T01:04:25.902Z,11.13
2022-12-19T01:06:36.357Z,12.48
2022-12-19T01:09:04.234Z,14.90
2022-12-19T01:11:50.271Z,14.88
2022-12-19T01:14:22.512Z,15.38
2022-12-19T01:16:51.103Z,13.10
2022-12-19T01:19:18.892Z,14.48
2022-12-19T01:21:46.054Z,11.10
2022-12-19T01:24:13.660Z,12.00
2022-12-19T01:26:42.971Z,8.10
2022-12-19T01:29:10.180Z,11.53
2022-12-19T01:31:37.285Z,11.50
2022-12-19T01:34:04.352Z,10.90
2022-12-19T01:36:32.595Z,13.68
2022-12-19T01:38:59.620Z,14.27
2022-12-19T01:41:26.735Z,12.40
2022-12-19T01:44:02.521Z,10.77
2022-12-19T01:46:37.239Z,14.80
2022-12-19T01:49:05.656Z,13.43
2022-12-19T01:51:39.539Z,13.10
2022-12-19T01:54:12.498Z,16.70
2022-12-19T01:56:42.653Z,12.68
2022-12-19T01:59:14.681Z,15.95
2022-12-19T02:01:50.854Z,13.88
2022-12-19T02:04:19.762Z,14.05
2022-12-19T02:06:47.360Z,16.80
2022-12-19T02:09:14.526Z,16.08
2022-12-19T02:11:42.067Z,14.93
2022-12-19T02:14:09.181Z,8.88
2022-12-19T02:16:48.271Z,9.23
2022-12-19T02:19:37.806Z,9.73
2022-12-19T02:22:28.727Z,9.60
2022-12-19T02:25:23.278Z,15.32
2022-12-19T02:28:11.633Z,12.52
2022-12-19T02:30:46.644Z,16.73
2022-12-19T02:33:22.935Z,13.53
2022-12-19T02:36:07.366Z,11.57
2022-12-19T02:38:42.180Z,12.43
2022-12-19T02:41:14.978Z,11.93
2022-12-19T02:43:44.963Z,10.75
2022-12-19T02:46:15.756Z,13.33
2022-12-19T02:48:43.352Z,15.30
2022-12-19T02:51:10.587Z,11.82
2022-12-19T02:53:38.415Z,11.90
2022-12-19T02:56:33.764Z,15.25
2022-12-19T02:59:35.514Z,14.83
2022-12-19T03:02:39.905Z,14.30
2022-12-19T03:05:16.947Z,13.95
2022-12-19T03:07:47.901Z,7.55
2022-12-19T03:10:46.746Z,15.40
2022-12-19T03:13:18.692Z,11.53
2022-12-19T03:15:46.222Z,15.35
2022-12-19T03:18:13.576Z,16.13
2022-12-19T03:21:02.558Z,13.55
2022-12-19T03:23:30.281Z,13.48
2022-12-19T03:26:07.625Z,13.90
2022-12-19T03:28:47.720Z,14.35
2022-12-19T03:31:17.349Z,9.45
2022-12-19T03:33:46.684Z,15.57
2022-12-19T03:36:17.473Z,14.80
2022-12-19T03:38:45.589Z,11.30
2022-12-19T03:41:14.476Z,14.90
2022-12-19T03:43:43.449Z,13.68
2022-12-19T03:46:24.338Z,14.48
2022-12-19T03:48:52.969Z,7.80
2022-12-19T03:51:19.987Z,11.63
2022-12-19T03:54:20.911Z,18.45
2022-12-19T03:57:10.713Z,11.23
2022-12-19T03:59:49.853Z,9.60
2022-12-19T04:02:18.227Z,15.15
2022-12-19T04:04:57.336Z,18.97
2022-12-19T04:07:24.629Z,13.45
2022-12-19T04:09:52.404Z,20.05
2022-12-19T04:12:22.647Z,15.00
2022-12-19T04:14:50.101Z,16.13
2022-12-19T04:17:35.944Z,14.80
2022-12-19T04:20:08.949Z,13.90
2022-12-19T04:22:52.866Z,12.30
2022-12-19T04:25:29.345Z,7.65
2022-12-19T04:28:00.298Z,16.50
2022-12-19T04:30:27.805Z,16.03
2022-12-19T04:32:55.350Z,9.60
2022-12-19T04:35:22.434Z,9.50
2022-12-19T04:37:49.569Z,9.68
2022-12-19T04:40:16.719Z,15.13
2022-12-19T04:42:43.910Z,12.70
2022-12-19T04:45:11.137Z,9.38
2022-12-19T04:47:38.402Z,14.30
2022-12-19T04:50:06.031Z,12.75
2022-12-19T04:52:33.214Z,10.98
2022-12-19T04:55:00.265Z,6.33
2022-12-19T04:57:31.203Z,15.35
2022-12-19T04:59:58.278Z,11.77
2022-12-19T05:02:26.318Z,15.27
2022-12-19T05:04:53.580Z,14.13
2022-12-19T05:07:20.694Z,14.33
2022-12-19T05:09:47.761Z,11.98
2022-12-19T05:12:14.854Z,8.88
2022-12-19T05:14:41.927Z,13.35
2022-12-19T05:17:09.039Z,12.05
2022-12-19T05:19:36.321Z,11.90
2022-12-19T05:22:04.119Z,14.45
2022-12-19T05:24:31.879Z,18.23
2022-12-19T05:26:59.284Z,8.05
2022-12-19T05:29:26.412Z,11.32
2022-12-19T05:31:53.644Z,9.50
2022-12-19T05:34:21.016Z,14.20
2022-12-19T05:36:48.131Z,18.77
2022-12-19T05:39:15.338Z,14.90
2022-12-19T05:41:46.302Z,13.55
2022-12-19T05:44:16.689Z,14.10
2022-12-19T05:46:44.371Z,13.77
2022-12-19T05:49:11.540Z,16.48
2022-12-19T05:51:38.735Z,15.20
2022-12-19T05:54:05.823Z,14.43
2022-12-19T05:56:32.896Z,14.80
2022-12-19T05:59:00.049Z,13.52
2022-12-19T06:01:28.468Z,13.05
2022-12-19T06:03:55.802Z,14.27
2022-12-19T06:06:26.011Z,14.18
2022-12-19T06:08:57.900Z,12.77
2022-12-19T06:11:25.859Z,15.85
2022-12-19T06:13:53.143Z,14.50
2022-12-19T06:16:21.958Z,10.45
2022-12-19T06:18:49.143Z,11.23
2022-12-19T06:21:21.289Z,15.87
2022-12-19T06:23:48.628Z,13.02
2022-12-19T06:26:19.805Z,14.38
2022-12-19T06:28:48.317Z,15.63
2022-12-19T06:31:15.898Z,10.43
2022-12-19T06:33:43.164Z,12.63
2022-12-19T06:36:14.029Z,12.70
2022-12-19T06:38:41.155Z,9.50
2022-12-19T06:41:28.072Z,15.77
2022-12-19T06:44:02.746Z,15.32
2022-12-19T06:46:29.993Z,13.87
2022-12-19T06:48:57.217Z,16.02
2022-12-19T06:51:24.279Z,13.05
2022-12-19T06:53:51.522Z,12.35
2022-12-19T06:56:18.995Z,18.70
2022-12-19T06:58:46.503Z,14.70
2022-12-19T07:01:36.638Z,14.05
2022-12-19T07:04:03.975Z,14.45
2022-12-19T07:06:31.051Z,12.00
2022-12-19T07:08:58.081Z,16.33
2022-12-19T07:11:25.132Z,11.37
2022-12-19T07:13:52.175Z,11.75
2022-12-19T07:16:20.339Z,11.27
2022-12-19T07:18:47.504Z,9.43
2022-12-19T07:21:14.544Z,10.73
2022-12-19T07:23:41.790Z,8.97
2022-12-19T07:26:08.930Z,9.05
2022-12-19T07:28:36.668Z,13.13
2022-12-19T07:31:04.216Z,12.65
2022-12-19T07:33:31.288Z,9.85
2022-12-19T07:35:58.335Z,9.97
2022-12-19T07:38:25.502Z,9.80
2022-12-19T07:40:52.544Z,8.88
2022-12-19T07:43:19.623Z,9.45
2022-12-19T07:45:46.807Z,7.72
2022-12-19T07:48:13.892Z,8.33
2022-12-19T07:50:41.667Z,9.90
2022-12-19T07:53:08.762Z,8.48
2022-12-19T07:55:35.832Z,10.20
2022-12-19T07:58:02.951Z,8.10
2022-12-19T08:00:31.402Z,11.00
2022-12-19T08:02:59.445Z,8.88
2022-12-19T08:05:26.671Z,12.88
2022-12-19T08:07:54.245Z,9.27
2022-12-19T08:10:22.785Z,6.03
2022-12-19T08:12:49.880Z,7.27
2022-12-19T08:15:17.034Z,9.50
2022-12-19T08:17:44.267Z,10.27
2022-12-19T08:20:11.750Z,9.23
2022-12-19T08:22:39.283Z,6.90
2022-12-19T08:25:07.573Z,11.43
2022-12-19T08:27:34.940Z,5.25
2022-12-19T08:30:02.481Z,8.32
2022-12-19T08:32:29.793Z,11.00
2022-12-19T08:34:57.024Z,14.57
2022-12-19T08:37:24.072Z,8.60
2022-12-19T08:39:51.866Z,11.88
2022-12-19T08:42:19.057Z,15.23
2022-12-19T08:44:46.243Z,12.63
2022-12-19T08:47:13.442Z,10.00
2022-12-19T08:49:40.585Z,10.43
2022-12-19T08:52:07.718Z,9.52
2022-12-19T08:54:34.809Z,13.23
2022-12-19T08:57:02.137Z,11.70
2022-12-19T08:59:31.724Z,8.82
2022-12-19T09:02:00.532Z,10.77
2022-12-19T09:05:27.779Z,12.40
2022-12-19T09:07:16.153Z,7.32
2022-12-19T09:09:44.962Z,12.38
2022-12-19T09:12:13.901Z,13.63
2022-12-19T09:14:40.957Z,13.43
2022-12-19T09:17:08.087Z,11.90
2022-12-19T09:19:35.192Z,11.00
2022-12-19T09:22:02.278Z,11.98
2022-12-19T09:24:29.414Z,11.82
2022-12-19T09:26:56.447Z,12.00
2022-12-19T09:29:24.342Z,14.63
2022-12-19T09:31:55.286Z,19.23
2022-12-19T09:34:36.256Z,12.32
2022-12-19T09:37:07.953Z,14.68
2022-12-19T09:39:36.068Z,13.80
2022-12-19T09:42:40.624Z,13.13
2022-12-19T09:45:19.469Z,13.90
2022-12-19T09:48:00.835Z,12.68
2022-12-19T09:50:39.912Z,9.98
2022-12-19T09:53:23.119Z,14.93
2022-12-19T09:55:52.534Z,14.25
2022-12-19T09:58:38.053Z,13.18
2022-12-19T10:01:16.189Z,17.23
2022-12-19T10:04:03.772Z,16.05
2022-12-19T10:07:12.513Z,13.33
2022-12-19T10:12:20.712Z,15.80
2022-12-19T10:12:43.380Z,12.73
2022-12-19T10:15:26.020Z,19.25
2022-12-19T10:18:01.624Z,13.45
2022-12-19T10:20:32.862Z,16.57
2022-12-19T10:23:15.315Z,14.00
2022-12-19T10:25:48.147Z,11.93
2022-12-19T10:28:28.874Z,17.70
2022-12-19T10:31:22.938Z,15.85
2022-12-19T10:33:58.393Z,6.80
2022-12-19T10:36:48.761Z,14.48
2022-12-19T10:39:18.333Z,12.55
2022-12-19T10:41:46.987Z,15.20
2022-12-19T10:44:14.438Z,15.93
2022-12-19T10:46:49.719Z,18.10
2022-12-19T10:49:22.232Z,7.82
2022-12-19T10:51:55.332Z,15.30
2022-12-19T10:54:30.593Z,15.55
2022-12-19T10:57:18.929Z,12.15
2022-12-19T11:00:01.363Z,15.97
2022-12-19T11:02:44.911Z,15.63
2022-12-19T11:05:23.810Z,11.32
2022-12-19T11:08:06.156Z,14.10
2022-12-19T11:14:41.504Z,17.05
2022-12-19T11:18:00.545Z,15.53
2022-12-19T11:23:18.838Z,17.48
2022-12-19T11:29:25.302Z,16.17
2022-12-19T11:29:31.326Z,13.25
2022-12-19T11:30:06.172Z,8.63
2022-12-19T11:30:46.428Z,10.02
2022-12-19T11:33:55.075Z,22.20
2022-12-19T11:36:36.615Z,16.60
2022-12-19T11:39:04.528Z,18.38
2022-12-19T11:41:37.472Z,14.77
2022-12-19T11:44:10.729Z,16.63
2022-12-19T11:46:42.543Z,15.38
2022-12-19T11:49:30.464Z,18.95
2022-12-19T11:52:29.564Z,16.77
2022-12-19T11:55:21.566Z,16.87
2022-12-19T11:57:48.887Z,19.63
2022-12-19T12:00:20.524Z,13.60
2022-12-19T12:03:22.911Z,18.65
2022-12-19T12:05:51.777Z,17.05
2022-12-19T12:10:35.953Z,17.47
2022-12-19T12:17:48.808Z,20.33
2022-12-19T12:23:40.327Z,19.63
2022-12-19T12:31:09.855Z,11.23
2022-12-19T12:31:18.960Z,16.48
2022-12-19T12:31:19.068Z,14.67
2022-12-19T12:31:40.920Z,17.38
2022-12-19T12:31:43.270Z,18.25
2022-12-19T12:35:51.345Z,17.70
2022-12-19T12:39:03.758Z,14.17
2022-12-19T12:42:09.138Z,16.70
2022-12-19T12:44:44.783Z,10.40
2022-12-19T12:47:18.870Z,18.67
2022-12-19T12:49:49.035Z,18.50
2022-12-19T12:52:27.460Z,16.90
2022-12-19T12:54:55.587Z,19.98
2022-12-19T12:57:29.912Z,18.25
2022-12-19T13:00:23.550Z,22.15
2022-12-19T13:03:13.327Z,20.17
2022-12-19T13:05:52.213Z,13.37
2022-12-19T13:08:34.575Z,16.17
2022-12-19T13:11:51.128Z,13.55
2022-12-19T13:14:37.079Z,17.35
2022-12-19T13:17:12.129Z,17.45
2022-12-19T13:20:12.198Z,19.27
2022-12-19T13:22:41.931Z,14.27
2022-12-19T13:25:48.394Z,17.80
2022-12-19T13:28:39.397Z,14.93
2022-12-19T13:31:17.813Z,8.93
2022-12-19T13:33:51.776Z,21.13
2022-12-19T13:39:52.443Z,16.35
2022-12-19T13:39:57.818Z,17.02
2022-12-19T13:42:43.597Z,20.38
2022-12-19T13:45:29.125Z,21.85
2022-12-19T13:47:57.643Z,9.77
2022-12-19T13:50:33.345Z,22.13
2022-12-19T13:53:00.545Z,17.85
2022-12-19T13:55:30.890Z,20.98
2022-12-19T13:57:58.251Z,22.55
2022-12-19T14:00:36.851Z,16.27
2022-12-19T14:03:04.169Z,25.15
2022-12-19T14:06:15.880Z,19.58
2022-12-19T14:08:23.732Z,26.20
2022-12-19T14:11:40.550Z,22.48
2022-12-19T14:14:15.306Z,21.83
2022-12-19T14:16:46.670Z,24.48
2022-12-19T14:19:22.426Z,24.73
2022-12-19T14:22:11.069Z,26.50
2022-12-19T14:24:36.732Z,22.17
2022-12-19T14:28:21.384Z,26.07
2022-12-19T14:30:30.826Z,31.60
2022-12-19T14:33:44.325Z,29.88
2022-12-19T14:36:11.520Z,22.13
2022-12-19T14:39:20.813Z,20.40
2022-12-19T14:41:54.612Z,22.40
2022-12-19T14:54:09.039Z,20.75
2022-12-19T14:54:10.025Z,22.17
2022-12-19T14:54:29.542Z,21.95
2022-12-19T14:54:41.913Z,23.27
2022-12-19T14:59:03.858Z,22.15
2022-12-19T15:01:33.574Z,22.42
2022-12-19T15:04:50.817Z,28.38
2022-12-19T15:07:07.036Z,28.67
2022-12-19T15:11:03.348Z,25.97
2022-12-19T15:14:47.123Z,16.52
2022-12-19T15:15:50.444Z,25.35
2022-12-19T15:18:32.678Z,24.67
2022-12-19T15:21:02.459Z,22.20
2022-12-19T15:23:29.936Z,23.03
2022-12-19T15:26:06.025Z,21.45
2022-12-19T15:28:47.294Z,24.13
2022-12-19T15:31:38.814Z,18.85
2022-12-19T15:39:51.766Z,21.67
2022-12-19T15:42:23.697Z,19.73
2022-12-19T15:44:52.255Z,22.17
2022-12-19T15:47:23.260Z,22.52
2022-12-19T15:49:50.421Z,21.67
2022-12-19T15:52:18.893Z,23.80
2022-12-19T15:54:48.356Z,22.38
2022-12-19T15:57:22.509Z,22.45
2022-12-19T15:59:49.863Z,21.90
2022-12-19T16:05:03.905Z,21.23
2022-12-19T16:07:31.822Z,21.35
2022-12-19T16:09:58.885Z,17.38
2022-12-19T16:12:32.091Z,17.33
2022-12-19T16:15:01.077Z,20.13
2022-12-19T16:17:31.496Z,21.60
2022-12-19T16:19:59.064Z,20.60
2022-12-19T16:22:27.912Z,21.00
2022-12-19T16:24:55.422Z,23.60
2022-12-19T16:27:25.890Z,23.30
2022-12-19T16:29:54.113Z,24.58
2022-12-19T16:32:25.705Z,19.80
2022-12-19T16:34:53.446Z,21.38
2022-12-19T16:37:20.518Z,24.40
2022-12-19T16:39:47.569Z,23.87
2022-12-19T16:42:16.175Z,21.13
2022-12-19T16:44:47.084Z,22.75
2022-12-19T16:47:16.747Z,20.08
2022-12-19T16:49:44.673Z,18.05
2022-12-19T16:52:12.043Z,17.63
2022-12-19T16:54:39.456Z,22.50
2022-12-19T16:57:18.830Z,18.98
2022-12-19T16:59:46.333Z,17.83
2022-12-19T17:02:36.496Z,16.88
2022-12-19T17:05:04.386Z,14.77
2022-12-19T17:07:31.482Z,20.98
2022-12-19T17:09:58.550Z,12.88
2022-12-19T17:12:26.735Z,16.17
2022-12-19T17:14:53.917Z,15.88
2022-12-19T17:17:21.998Z,24.67
2022-12-19T17:19:49.054Z,21.50
2022-12-19T17:22:18.397Z,19.40
2022-12-19T17:24:46.669Z,18.92
2022-12-19T17:27:14.330Z,20.85
2022-12-19T17:29:41.391Z,14.07
2022-12-19T17:32:19.845Z,16.15
2022-12-19T17:34:50.537Z,17.75
2022-12-19T17:37:17.728Z,21.35
2022-12-19T17:39:44.891Z,20.90
2022-12-19T17:42:23.570Z,18.00
2022-12-19T17:44:51.328Z,18.25
2022-12-19T17:47:19.750Z,21.98
2022-12-19T17:49:47.207Z,21.77
2022-12-19T17:52:16.625Z,20.35
2022-12-19T17:54:43.782Z,19.47
2022-12-19T17:57:15.451Z,20.80
2022-12-19T17:59:44.120Z,20.88
2022-12-19T18:02:20.175Z,18.65
2022-12-19T18:04:47.503Z,22.38
2022-12-19T18:07:15.954Z,20.00
2022-12-19T18:09:43.479Z,20.05
2022-12-19T18:12:10.679Z,16.38
2022-12-19T18:14:37.806Z,18.38
2022-12-19T18:17:05.439Z,20.30
2022-12-19T18:19:34.312Z,22.00
2022-12-19T18:22:01.766Z,20.20
2022-12-19T18:24:28.872Z,12.52
2022-12-19T18:26:56.233Z,14.10
2022-12-19T18:29:23.876Z,16.40
2022-12-19T18:31:51.493Z,18.87
2022-12-19T18:34:22.145Z,10.05
2022-12-19T18:36:49.574Z,17.52
2022-12-19T18:39:23.263Z,17.58
2022-12-19T18:41:51.372Z,16.20
2022-12-19T18:44:18.729Z,18.83
2022-12-19T18:46:46.099Z,17.13
2022-12-19T18:49:15.059Z,17.17
2022-12-19T18:51:42.643Z,17.25
2022-12-19T18:54:21.032Z,16.73
2022-12-19T18:56:48.340Z,17.43
2022-12-19T18:59:15.465Z,19.73
2022-12-19T19:01:44.884Z,16.25
2022-12-19T19:04:13.274Z,18.45
2022-12-19T19:06:46.667Z,17.20
2022-12-19T19:09:18.247Z,20.90
2022-12-19T19:11:45.596Z,19.23
2022-12-19T19:14:12.791Z,16.88
2022-12-19T19:16:40.436Z,21.25
2022-12-19T19:19:10.664Z,20.70
2022-12-19T19:21:38.662Z,17.67
2022-12-19T19:24:07.422Z,18.73
2022-12-19T19:26:34.604Z,19.23
2022-12-19T19:29:01.665Z,21.33
2022-12-19T19:31:31.731Z,17.90
2022-12-19T19:34:09.908Z,12.03
2022-12-19T19:36:57.580Z,15.60
2022-12-19T19:39:33.614Z,14.75
2022-12-19T19:42:01.225Z,14.05
2022-12-19T19:44:28.761Z,12.57
2022-12-19T19:46:55.966Z,14.70
2022-12-19T19:49:23.333Z,13.63
2022-12-19T19:51:50.410Z,14.98
2022-12-19T19:54:18.197Z,13.70
2022-12-19T19:56:45.310Z,10.80
2022-12-19T19:59:12.382Z,13.17
2022-12-19T20:01:39.621Z,15.07
2022-12-19T20:04:07.092Z,18.23
2022-12-19T20:06:34.214Z,15.02
2022-12-19T20:09:01.320Z,14.85
2022-12-19T20:11:28.672Z,17.60
2022-12-19T20:13:55.759Z,16.45
2022-12-19T20:16:22.875Z,15.38
2022-12-19T20:18:51.294Z,15.23
2022-12-19T20:21:19.780Z,12.75
2022-12-19T20:23:47.286Z,20.27
2022-12-19T20:26:16.268Z,18.25
2022-12-19T20:28:48.901Z,13.18
2022-12-19T20:31:21.174Z,16.27
2022-12-19T20:33:48.904Z,16.52
2022-12-19T20:38:48.182Z,13.43
2022-12-19T20:41:16.107Z,16.85
2022-12-19T20:43:43.470Z,17.02
2022-12-19T20:46:12.904Z,14.60
2022-12-19T20:48:40.224Z,18.97
2022-12-19T20:51:08.016Z,14.02
2022-12-19T20:53:36.842Z,14.13
2022-12-19T20:56:05.507Z,18.80
2022-12-19T20:58:33.990Z,17.02
2022-12-19T21:01:07.983Z,20.23
2022-12-19T21:03:36.117Z,16.17
2022-12-19T21:06:04.185Z,15.45
2022-12-19T21:08:31.448Z,17.23
2022-12-19T21:10:59.990Z,16.83
2022-12-19T21:13:27.047Z,14.53
2022-12-19T21:15:55.038Z,19.58
2022-12-19T21:18:22.344Z,18.73
2022-12-19T21:20:50.077Z,19.23
2022-12-19T21:23:17.873Z,16.52
2022-12-19T21:25:45.060Z,15.70
2022-12-19T21:28:12.120Z,21.10
2022-12-19T21:30:39.243Z,17.15
2022-12-19T21:33:06.337Z,20.08
2022-12-19T21:35:34.432Z,19.30
2022-12-19T21:38:02.167Z,41.13
2022-12-19T21:40:29.255Z,22.20
2022-12-19T21:42:56.299Z,17.52
2022-12-19T21:45:23.340Z,16.85
2022-12-19T21:47:50.613Z,18.23
2022-12-19T21:50:17.921Z,20.67
2022-12-19T21:52:45.037Z,20.63
2022-12-19T21:55:12.148Z,17.00
2022-12-19T21:57:40.314Z,19.10
2022-12-19T22:00:10.124Z,18.35
2022-12-19T22:02:37.721Z,22.23
2022-12-19T22:05:05.712Z,18.42
2022-12-19T22:07:33.248Z,16.23
2022-12-19T22:10:00.806Z,21.38
2022-12-19T22:12:27.879Z,18.65
2022-12-19T22:14:54.950Z,19.90
2022-12-19T22:17:22.035Z,21.17
2022-12-19T22:19:49.092Z,20.05
2022-12-19T22:22:16.139Z,18.77
2022-12-19T22:24:43.235Z,21.58
2022-12-19T22:27:10.317Z,20.03
2022-12-19T22:29:37.397Z,21.33
2022-12-19T22:32:04.981Z,19.33
2022-12-19T22:34:32.182Z,20.27
2022-12-19T22:36:59.283Z,23.20
2022-12-19T22:39:26.519Z,20.13
2022-12-19T22:41:53.548Z,18.40
2022-12-19T22:44:23.046Z,18.55
2022-12-19T22:46:50.974Z,19.42
2022-12-19T22:49:18.313Z,18.00
2022-12-19T22:51:45.490Z,23.57
2022-12-19T22:54:13.523Z,18.85
2022-12-19T22:56:41.167Z,20.05
2022-12-19T22:59:08.950Z,19.85
2022-12-19T23:01:38.623Z,20.27
2022-12-19T23:04:06.914Z,20.77
2022-12-19T23:06:36.722Z,19.98
2022-12-19T23:09:06.058Z,17.05
2022-12-19T23:11:38.356Z,19.13
2022-12-19T23:14:07.354Z,21.48
2022-12-19T23:16:34.568Z,23.47
2022-12-19T23:19:01.698Z,19.13
2022-12-19T23:21:28.817Z,21.95
2022-12-19T23:23:56.281Z,17.33
2022-12-19T23:26:29.116Z,23.27
2022-12-19T23:28:58.700Z,20.30
2022-12-19T23:31:26.201Z,20.40
2022-12-19T23:33:53.869Z,20.88
2022-12-19T23:36:45.122Z,18.95
2022-12-19T23:39:09.983Z,20.55
2022-12-19T23:41:37.647Z,17.70
2022-12-19T23:44:04.952Z,21.65
2022-12-19T23:46:32.199Z,19.90
2022-12-19T23:48:59.494Z,20.48
2022-12-19T23:51:27.334Z,19.88
2022-12-19T23:53:55.610Z,18.60
2022-12-19T23:56:28.917Z,19.15
2022-12-19T23:58:56.417Z,21.20
